createdAt,value
2022-10-19T00:00:40.687Z,3.52
2022-10-19T00:01:40.691Z,3.52
2022-10-19T00:02:40.694Z,3.53
2022-10-19T00:03:40.730Z,3.54
2022-10-19T00:04:40.631Z,3.53
2022-10-19T00:05:40.673Z,3.53
2022-10-19T00:06:40.601Z,3.53
2022-10-19T00:07:40.599Z,3.54
2022-10-19T00:08:40.584Z,3.57
2022-10-19T00:09:40.623Z,3.57
2022-10-19T00:10:40.582Z,3.53
2022-10-19T00:11:40.568Z,3.52
2022-10-19T00:12:40.587Z,3.52
2022-10-19T00:13:40.583Z,3.52
2022-10-19T00:14:40.540Z,3.52
2022-10-19T00:15:40.526Z,3.53
2022-10-19T00:16:40.603Z,3.49
2022-10-19T00:17:40.474Z,3.49
2022-10-19T00:18:40.484Z,3.44
2022-10-19T00:19:40.491Z,3.43
2022-10-19T00:20:40.484Z,3.46
2022-10-19T00:21:40.473Z,3.44
2022-10-19T00:22:40.426Z,3.46
2022-10-19T00:23:40.418Z,3.46
2022-10-19T00:24:40.422Z,3.46
2022-10-19T00:25:40.404Z,3.49
2022-10-19T00:26:40.419Z,3.47
2022-10-19T00:27:40.354Z,3.47
2022-10-19T00:28:40.440Z,3.46
2022-10-19T00:29:40.348Z,3.44
2022-10-19T00:30:40.445Z,3.47
2022-10-19T00:31:40.330Z,3.47
2022-10-19T00:32:40.333Z,3.49
2022-10-19T00:33:40.312Z,3.49
2022-10-19T00:34:40.319Z,3.49
2022-10-19T00:35:40.290Z,3.47
2022-10-19T00:36:40.284Z,3.46
2022-10-19T00:37:40.291Z,3.46
2022-10-19T00:38:40.239Z,3.47
2022-10-19T00:39:40.281Z,3.47
2022-10-19T00:40:40.223Z,3.44
2022-10-19T00:41:40.208Z,3.44
2022-10-19T00:42:40.219Z,3.44
2022-10-19T00:43:40.189Z,3.46
2022-10-19T00:44:40.188Z,3.44
2022-10-19T00:45:40.168Z,3.43
2022-10-19T00:46:40.165Z,3.42
2022-10-19T00:47:40.205Z,3.42
2022-10-19T00:48:40.159Z,3.36
2022-10-19T00:49:40.118Z,3.34
2022-10-19T00:50:40.109Z,3.33
2022-10-19T00:51:40.102Z,3.33
2022-10-19T00:52:40.093Z,3.34
2022-10-19T00:53:40.102Z,3.34
2022-10-19T00:54:40.090Z,3.33
2022-10-19T00:55:40.063Z,3.33
2022-10-19T00:56:40.053Z,3.30
2022-10-19T00:57:40.087Z,3.33
2022-10-19T00:58:40.025Z,3.31
2022-10-19T00:59:40.036Z,3.30
2022-10-19T01:00:40.113Z,3.30
2022-10-19T01:01:39.999Z,3.27
2022-10-19T01:02:39.973Z,3.27
2022-10-19T01:03:39.960Z,3.25
2022-10-19T01:04:39.993Z,3.27
2022-10-19T01:05:39.957Z,3.24
2022-10-19T01:06:39.988Z,3.25
2022-10-19T01:07:39.924Z,3.27
2022-10-19T01:08:39.901Z,3.25
2022-10-19T01:09:39.927Z,3.27
2022-10-19T01:10:39.931Z,3.25
2022-10-19T01:11:39.884Z,3.28
2022-10-19T01:12:39.860Z,3.27
2022-10-19T01:13:39.884Z,3.27
2022-10-19T01:14:39.869Z,3.24
2022-10-19T01:15:40.019Z,3.28
2022-10-19T01:16:39.849Z,3.28
2022-10-19T01:17:39.814Z,3.30
2022-10-19T01:18:39.819Z,3.31
2022-10-19T01:19:39.806Z,3.31
2022-10-19T01:20:39.785Z,3.30
2022-10-19T01:21:39.764Z,3.27
2022-10-19T01:22:39.751Z,3.24
2022-10-19T01:23:39.762Z,3.23
2022-10-19T01:24:40.724Z,3.21
2022-10-19T01:25:39.730Z,3.18
2022-10-19T01:26:39.722Z,3.16
2022-10-19T01:27:40.365Z,3.15
2022-10-19T01:28:39.721Z,3.15
2022-10-19T01:29:39.728Z,3.15
2022-10-19T01:30:39.665Z,3.16
2022-10-19T01:31:39.655Z,3.20
2022-10-19T01:32:39.665Z,3.16
2022-10-19T01:33:39.649Z,3.13
2022-10-19T01:34:39.617Z,3.12
2022-10-19T01:35:39.636Z,3.12
2022-10-19T01:36:39.607Z,3.12
2022-10-19T01:37:39.603Z,3.12
2022-10-19T01:38:39.587Z,3.13
2022-10-19T01:39:39.573Z,3.13
2022-10-19T01:40:39.559Z,3.16
2022-10-19T01:41:39.528Z,3.18
2022-10-19T01:42:39.523Z,3.21
2022-10-19T01:43:39.575Z,3.23
2022-10-19T01:44:39.495Z,3.24
2022-10-19T01:45:39.495Z,3.24
2022-10-19T01:46:39.489Z,3.28
2022-10-19T01:47:39.488Z,3.28
2022-10-19T01:48:39.474Z,3.30
2022-10-19T01:49:39.477Z,3.27
2022-10-19T01:50:39.427Z,3.27
2022-10-19T01:51:39.446Z,3.25
2022-10-19T01:52:39.419Z,3.28
2022-10-19T01:53:39.418Z,3.24
2022-10-19T01:54:39.410Z,3.20
2022-10-19T01:55:39.425Z,3.18
2022-10-19T01:56:39.405Z,3.16
2022-10-19T01:57:39.351Z,3.15
2022-10-19T01:58:39.380Z,3.15
2022-10-19T01:59:39.335Z,3.09
2022-10-19T02:00:39.433Z,3.09
2022-10-19T02:01:39.327Z,3.05
2022-10-19T02:02:39.367Z,3.06
2022-10-19T02:03:39.295Z,3.07
2022-10-19T02:04:39.300Z,3.09
2022-10-19T02:05:39.271Z,3.10
2022-10-19T02:06:39.257Z,3.16
2022-10-19T02:07:39.257Z,3.20
2022-10-19T02:08:40.048Z,3.20
2022-10-19T02:09:39.233Z,3.23
2022-10-19T02:10:39.226Z,3.24
2022-10-19T02:11:39.247Z,3.24
2022-10-19T02:12:39.199Z,3.24
2022-10-19T02:13:41.160Z,3.25
2022-10-19T02:14:39.181Z,3.28
2022-10-19T02:15:39.151Z,3.30
2022-10-19T02:16:39.215Z,3.31
2022-10-19T02:17:39.138Z,3.28
2022-10-19T02:18:39.158Z,3.30
2022-10-19T02:19:39.136Z,3.28
2022-10-19T02:20:39.122Z,3.30
2022-10-19T02:21:39.117Z,3.33
2022-10-19T02:22:39.076Z,3.34
2022-10-19T02:23:39.111Z,3.36
2022-10-19T02:24:39.078Z,3.36
2022-10-19T02:25:39.063Z,3.34
2022-10-19T02:26:39.046Z,3.39
2022-10-19T02:27:39.031Z,3.39
2022-10-19T02:28:39.051Z,3.36
2022-10-19T02:29:39.010Z,3.39
2022-10-19T02:30:39.016Z,3.39
2022-10-19T02:31:38.989Z,3.39
2022-10-19T02:32:39.027Z,3.39
2022-10-19T02:33:38.959Z,3.39
2022-10-19T02:34:38.947Z,3.43
2022-10-19T02:35:38.923Z,3.42
2022-10-19T02:36:38.941Z,3.39
2022-10-19T02:37:38.931Z,3.36
2022-10-19T02:38:38.932Z,3.34
2022-10-19T02:39:38.902Z,3.36
2022-10-19T02:40:38.879Z,3.34
2022-10-19T02:41:38.902Z,3.40
2022-10-19T02:42:38.853Z,3.42
2022-10-19T02:43:38.842Z,3.44
2022-10-19T02:44:38.843Z,3.44
2022-10-19T02:45:38.838Z,3.43
2022-10-19T02:47:38.804Z,3.42
2022-10-19T02:48:38.796Z,3.42
2022-10-19T02:49:38.796Z,3.44
2022-10-19T02:50:38.778Z,3.44
2022-10-19T02:51:38.774Z,3.44
2022-10-19T02:52:38.756Z,3.47
2022-10-19T02:53:38.724Z,3.46
2022-10-19T02:54:38.716Z,3.47
2022-10-19T02:55:38.706Z,3.49
2022-10-19T02:56:38.689Z,3.47
2022-10-19T02:57:38.699Z,3.49
2022-10-19T02:58:38.665Z,3.50
2022-10-19T02:59:38.711Z,3.52
2022-10-19T03:00:38.732Z,3.50
2022-10-19T03:01:38.654Z,3.50
2022-10-19T03:02:38.630Z,3.53
2022-10-19T03:03:38.619Z,3.52
2022-10-19T03:04:38.693Z,3.53
2022-10-19T03:05:38.621Z,3.57
2022-10-19T03:06:38.584Z,3.57
2022-10-19T03:07:38.595Z,3.53
2022-10-19T03:08:38.607Z,3.54
2022-10-19T03:09:38.567Z,3.57
2022-10-19T03:10:38.535Z,3.57
2022-10-19T03:11:38.522Z,3.57
2022-10-19T03:12:38.557Z,3.58
2022-10-19T03:13:38.589Z,3.54
2022-10-19T03:14:38.536Z,3.57
2022-10-19T03:15:38.485Z,3.57
2022-10-19T03:16:38.479Z,3.60
2022-10-19T03:17:38.488Z,3.58
2022-10-19T03:18:38.447Z,3.57
2022-10-19T03:19:38.467Z,3.58
2022-10-19T03:20:38.477Z,3.58
2022-10-19T03:21:38.452Z,3.58
2022-10-19T03:22:38.400Z,3.58
2022-10-19T03:23:38.410Z,3.60
2022-10-19T03:24:38.378Z,3.61
2022-10-19T03:25:38.405Z,3.58
2022-10-19T03:26:38.378Z,3.54
2022-10-19T03:27:38.373Z,3.54
2022-10-19T03:28:38.374Z,3.57
2022-10-19T03:29:38.375Z,3.57
2022-10-19T03:30:38.310Z,3.57
2022-10-19T03:31:38.342Z,3.57
2022-10-19T03:32:38.313Z,3.57
2022-10-19T03:33:38.279Z,3.58
2022-10-19T03:34:38.273Z,3.53
2022-10-19T03:35:38.323Z,3.54
2022-10-19T03:36:38.340Z,3.53
2022-10-19T03:37:38.249Z,3.54
2022-10-19T03:38:38.221Z,3.54
2022-10-19T03:39:38.240Z,3.53
2022-10-19T03:40:38.205Z,3.53
2022-10-19T03:41:38.275Z,3.50
2022-10-19T03:42:38.179Z,3.52
2022-10-19T03:43:38.222Z,3.53
2022-10-19T03:44:38.159Z,3.58
2022-10-19T03:45:38.136Z,3.58
2022-10-19T03:46:38.125Z,3.58
2022-10-19T03:47:38.172Z,3.58
2022-10-19T03:48:38.146Z,3.54
2022-10-19T03:49:40.242Z,3.54
2022-10-19T03:50:38.128Z,3.57
2022-10-19T03:51:38.071Z,3.58
2022-10-19T03:52:38.094Z,3.57
2022-10-19T03:53:38.110Z,3.58
2022-10-19T03:54:38.034Z,3.57
2022-10-19T03:55:38.031Z,3.57
2022-10-19T03:56:38.080Z,3.54
2022-10-19T03:57:38.014Z,3.54
2022-10-19T03:58:38.096Z,3.58
2022-10-19T03:59:38.003Z,3.60
2022-10-19T04:00:38.002Z,3.60
2022-10-19T04:01:37.959Z,3.61
2022-10-19T04:02:37.986Z,3.64
2022-10-19T04:03:37.963Z,3.64
2022-10-19T04:04:37.962Z,3.65
2022-10-19T04:05:37.948Z,3.65
2022-10-19T04:06:37.915Z,3.65
2022-10-19T04:07:37.917Z,3.67
2022-10-19T04:08:37.923Z,3.68
2022-10-19T04:09:37.897Z,3.67
2022-10-19T04:10:37.886Z,3.67
2022-10-19T04:11:37.862Z,3.67
2022-10-19T04:12:38.484Z,3.65
2022-10-19T04:13:37.850Z,3.65
2022-10-19T04:14:52.383Z,3.65
2022-10-19T04:15:37.851Z,3.64
2022-10-19T04:16:37.804Z,3.65
2022-10-19T04:17:37.814Z,3.65
2022-10-19T04:18:37.787Z,3.67
2022-10-19T04:19:37.775Z,3.67
2022-10-19T04:20:37.769Z,3.65
2022-10-19T04:21:37.762Z,3.65
2022-10-19T04:22:37.747Z,3.65
2022-10-19T04:23:37.744Z,3.67
2022-10-19T04:24:37.706Z,3.67
2022-10-19T04:25:37.813Z,3.65
2022-10-19T04:26:37.699Z,3.67
2022-10-19T04:27:37.702Z,3.67
2022-10-19T04:28:37.696Z,3.68
2022-10-19T04:29:37.650Z,3.68
2022-10-19T04:30:37.629Z,3.71
2022-10-19T04:31:37.647Z,3.71
2022-10-19T04:32:37.657Z,3.71
2022-10-19T04:33:37.663Z,3.71
2022-10-19T04:34:39.923Z,3.70
2022-10-19T04:35:37.585Z,3.71
2022-10-19T04:36:37.593Z,3.71
2022-10-19T04:37:37.580Z,3.75
2022-10-19T04:38:37.549Z,3.75
2022-10-19T04:39:37.551Z,3.76
2022-10-19T04:40:37.542Z,3.76
2022-10-19T04:41:37.517Z,3.75
2022-10-19T04:42:37.542Z,3.76
2022-10-19T04:43:37.500Z,3.72
2022-10-19T04:44:37.497Z,3.78
2022-10-19T04:45:37.464Z,3.78
2022-10-19T04:46:37.518Z,3.79
2022-10-19T04:47:37.465Z,3.79
2022-10-19T04:48:37.442Z,3.82
2022-10-19T04:49:37.428Z,3.79
2022-10-19T04:50:38.482Z,3.79
2022-10-19T04:51:37.405Z,3.75
2022-10-19T04:52:37.429Z,3.78
2022-10-19T04:53:37.413Z,3.78
2022-10-19T04:54:37.393Z,3.79
2022-10-19T04:55:37.373Z,3.82
2022-10-19T04:56:37.355Z,3.80
2022-10-19T04:57:37.338Z,3.82
2022-10-19T04:58:37.332Z,3.82
2022-10-19T04:59:37.329Z,3.83
2022-10-19T05:00:37.333Z,3.86
2022-10-19T05:01:37.289Z,3.86
2022-10-19T05:02:37.288Z,3.88
2022-10-19T05:03:37.270Z,3.89
2022-10-19T05:04:38.286Z,3.89
2022-10-19T05:05:37.240Z,3.94
2022-10-19T05:06:37.240Z,3.92
2022-10-19T05:07:37.260Z,3.92
2022-10-19T05:08:37.217Z,3.92
2022-10-19T05:09:37.226Z,3.90
2022-10-19T05:10:37.223Z,3.90
2022-10-19T05:11:37.179Z,3.92
2022-10-19T05:12:37.190Z,3.90
2022-10-19T05:13:37.157Z,3.90
2022-10-19T05:14:39.092Z,3.90
2022-10-19T05:15:37.168Z,3.92
2022-10-19T05:16:37.142Z,3.92
2022-10-19T05:17:37.378Z,3.90
2022-10-19T05:18:37.123Z,3.90
2022-10-19T05:19:37.094Z,3.90
2022-10-19T05:20:37.153Z,3.90
2022-10-19T05:21:37.061Z,3.90
2022-10-19T05:22:37.053Z,3.94
2022-10-19T05:23:37.046Z,3.94
2022-10-19T05:24:37.028Z,3.97
2022-10-19T05:25:37.039Z,3.96
2022-10-19T05:26:37.037Z,3.97
2022-10-19T05:27:37.251Z,3.97
2022-10-19T05:28:37.083Z,3.98
2022-10-19T05:29:38.068Z,3.97
2022-10-19T05:30:36.974Z,3.97
2022-10-19T05:31:37.712Z,3.96
2022-10-19T05:32:36.956Z,3.97
2022-10-19T05:33:36.966Z,3.97
2022-10-19T05:34:36.919Z,3.98
2022-10-19T05:35:36.901Z,3.97
2022-10-19T05:36:37.056Z,4.01
2022-10-19T05:37:37.123Z,4.04
2022-10-19T05:38:36.901Z,4.06
2022-10-19T05:39:36.875Z,4.06
2022-10-19T05:40:36.870Z,4.06
2022-10-19T05:41:36.864Z,4.03
2022-10-19T05:42:36.860Z,4.03
2022-10-19T05:43:36.833Z,4.00
2022-10-19T05:45:36.809Z,3.97
2022-10-19T05:46:36.786Z,3.96
2022-10-19T05:47:37.207Z,3.94
2022-10-19T05:48:36.772Z,3.94
2022-10-19T05:49:36.800Z,3.98
2022-10-19T05:50:36.817Z,3.98
2022-10-19T05:51:36.737Z,3.98
2022-10-19T05:52:36.770Z,4.00
2022-10-19T05:54:36.687Z,4.01
2022-10-19T05:55:36.707Z,4.01
2022-10-19T05:56:36.697Z,4.03
2022-10-19T05:57:37.178Z,4.03
2022-10-19T05:58:36.647Z,4.00
2022-10-19T05:59:36.654Z,4.00
2022-10-19T06:00:36.634Z,4.00
2022-10-19T06:01:37.575Z,3.96
2022-10-19T06:02:36.621Z,3.96
2022-10-19T06:03:36.609Z,3.92
2022-10-19T06:04:36.595Z,3.90
2022-10-19T06:05:36.622Z,3.90
2022-10-19T06:06:36.603Z,3.88
2022-10-19T06:07:36.979Z,3.85
2022-10-19T06:08:36.558Z,3.85
2022-10-19T06:09:36.551Z,3.83
2022-10-19T06:10:36.537Z,3.83
2022-10-19T06:11:36.546Z,3.85
2022-10-19T06:12:36.503Z,3.82
2022-10-19T06:13:36.478Z,3.82
2022-10-19T06:14:36.615Z,3.82
2022-10-19T06:15:36.487Z,3.80
2022-10-19T06:16:36.464Z,3.82
2022-10-19T06:17:36.754Z,3.83
2022-10-19T06:18:36.430Z,3.85
2022-10-19T06:19:36.419Z,3.85
2022-10-19T06:20:36.415Z,3.86
2022-10-19T06:21:37.264Z,3.83
2022-10-19T06:22:36.426Z,3.85
2022-10-19T06:23:36.456Z,3.83
2022-10-19T06:24:36.378Z,3.86
2022-10-19T06:25:36.347Z,3.85
2022-10-19T06:26:36.374Z,3.86
2022-10-19T06:27:36.734Z,3.88
2022-10-19T06:28:36.347Z,3.85
2022-10-19T06:29:36.738Z,3.88
2022-10-19T06:30:36.308Z,3.85
2022-10-19T06:31:36.326Z,3.86
2022-10-19T06:32:36.275Z,3.88
2022-10-19T06:33:36.368Z,3.86
2022-10-19T06:34:36.264Z,3.88
2022-10-19T06:35:36.248Z,3.86
2022-10-19T06:36:36.220Z,3.88
2022-10-19T06:37:36.554Z,3.89
2022-10-19T06:38:36.226Z,3.86
2022-10-19T06:39:36.226Z,3.86
2022-10-19T06:40:36.203Z,3.86
2022-10-19T06:41:36.181Z,3.86
2022-10-19T06:42:36.156Z,3.86
2022-10-19T06:43:36.174Z,3.86
2022-10-19T06:44:36.173Z,3.86
2022-10-19T06:45:36.206Z,3.88
2022-10-19T06:46:36.143Z,3.86
2022-10-19T06:47:36.549Z,3.85
2022-10-19T06:48:37.638Z,3.86
2022-10-19T06:49:36.080Z,3.88
2022-10-19T06:50:36.084Z,3.86
2022-10-19T06:51:36.066Z,3.88
2022-10-19T06:52:36.326Z,3.88
2022-10-19T06:53:36.050Z,3.88
2022-10-19T06:54:36.033Z,3.88
2022-10-19T06:55:36.016Z,3.89
2022-10-19T06:56:36.093Z,3.88
2022-10-19T06:57:36.408Z,3.89
2022-10-19T06:58:35.998Z,3.89
2022-10-19T06:59:35.964Z,3.89
2022-10-19T07:00:36.015Z,3.88
2022-10-19T07:01:36.015Z,3.89
2022-10-19T07:02:36.530Z,3.88
2022-10-19T07:03:35.919Z,3.89
2022-10-19T07:04:35.928Z,3.90
2022-10-19T07:05:35.901Z,3.92
2022-10-19T07:06:35.893Z,3.94
2022-10-19T07:07:36.268Z,3.94
2022-10-19T07:08:35.896Z,3.96
2022-10-19T07:09:35.899Z,3.97
2022-10-19T07:10:35.850Z,3.98
2022-10-19T07:11:35.845Z,4.00
2022-10-19T07:12:35.827Z,4.00
2022-10-19T07:13:35.811Z,4.00
2022-10-19T07:14:35.796Z,4.04
2022-10-19T07:15:35.809Z,4.04
2022-10-19T07:16:35.774Z,4.04
2022-10-19T07:17:36.293Z,4.06
2022-10-19T07:18:35.758Z,4.06
2022-10-19T07:19:35.743Z,4.07
2022-10-19T07:20:35.748Z,4.07
2022-10-19T07:21:35.721Z,4.07
2022-10-19T07:22:35.710Z,4.10
2022-10-19T07:23:35.690Z,4.07
2022-10-19T07:24:35.698Z,4.08
2022-10-19T07:25:35.705Z,4.10
2022-10-19T07:26:35.677Z,4.12
2022-10-19T07:27:37.734Z,4.12
2022-10-19T07:28:35.679Z,4.10
2022-10-19T07:29:35.619Z,4.10
2022-10-19T07:30:35.604Z,4.14
2022-10-19T07:31:35.693Z,4.14
2022-10-19T07:32:35.605Z,4.14
2022-10-19T07:33:35.606Z,4.18
2022-10-19T07:34:35.570Z,4.19
2022-10-19T07:35:35.584Z,4.19
2022-10-19T07:36:35.557Z,4.19
2022-10-19T07:37:35.943Z,4.19
2022-10-19T07:38:35.524Z,4.19
2022-10-19T07:39:35.530Z,4.21
2022-10-19T07:40:35.522Z,4.24
2022-10-19T07:41:35.501Z,4.22
2022-10-19T07:42:35.540Z,4.21
2022-10-19T07:43:35.497Z,4.24
2022-10-19T07:44:35.456Z,4.25
2022-10-19T07:45:35.444Z,4.24
2022-10-19T07:46:35.444Z,4.25
2022-10-19T07:47:35.766Z,4.25
2022-10-19T07:48:35.424Z,4.26
2022-10-19T07:49:35.415Z,4.29
2022-10-19T07:50:35.411Z,4.29
2022-10-19T07:51:35.407Z,4.28
2022-10-19T07:52:36.987Z,4.29
2022-10-19T07:53:35.354Z,4.33
2022-10-19T07:54:35.420Z,4.34
2022-10-19T07:55:35.329Z,4.33
2022-10-19T07:56:35.373Z,4.36
2022-10-19T07:57:35.330Z,4.33
2022-10-19T07:58:35.316Z,4.34
2022-10-19T07:59:36.723Z,4.36
2022-10-19T08:00:35.498Z,4.36
2022-10-19T08:01:35.278Z,4.39
2022-10-19T08:02:54.687Z,4.37
2022-10-19T08:05:35.300Z,4.44
2022-10-19T08:06:35.216Z,4.43
2022-10-19T08:07:36.084Z,4.42
2022-10-19T08:08:36.174Z,4.39
2022-10-19T08:10:35.264Z,4.36
2022-10-19T08:11:35.208Z,4.34
2022-10-19T08:12:35.460Z,4.34
2022-10-19T08:13:35.128Z,4.36
2022-10-19T08:14:35.202Z,4.36
2022-10-19T08:15:35.140Z,4.36
2022-10-19T08:16:35.097Z,4.37
2022-10-19T08:17:35.101Z,4.39
2022-10-19T08:18:35.105Z,4.36
2022-10-19T08:19:35.091Z,4.39
2022-10-19T08:20:35.075Z,4.39
2022-10-19T08:21:35.044Z,4.42
2022-10-19T08:22:35.406Z,4.43
2022-10-19T08:23:35.026Z,4.42
2022-10-19T08:24:35.060Z,4.42
2022-10-19T08:25:35.008Z,4.40
2022-10-19T08:26:34.978Z,4.40
2022-10-19T08:28:34.975Z,4.42
2022-10-19T08:29:34.978Z,4.44
2022-10-19T08:30:34.955Z,4.44
2022-10-19T08:31:34.978Z,4.47
2022-10-19T08:32:35.379Z,4.46
2022-10-19T08:33:34.994Z,4.46
2022-10-19T08:34:34.935Z,4.47
2022-10-19T08:35:34.889Z,4.51
2022-10-19T08:36:34.928Z,4.52
2022-10-19T08:37:46.016Z,4.51
2022-10-19T08:38:34.859Z,4.51
2022-10-19T08:39:34.890Z,4.54
2022-10-19T08:40:34.846Z,4.54
2022-10-19T08:41:34.861Z,4.54
2022-10-19T08:42:35.031Z,4.57
2022-10-19T08:43:34.815Z,4.58
2022-10-19T08:44:34.788Z,4.58
2022-10-19T08:45:34.838Z,4.62
2022-10-19T08:46:34.800Z,4.65
2022-10-19T08:47:35.084Z,4.67
2022-10-19T08:48:34.786Z,4.64
2022-10-19T08:49:34.763Z,4.67
2022-10-19T08:50:34.760Z,4.67
2022-10-19T08:51:34.708Z,4.70
2022-10-19T08:52:34.908Z,4.72
2022-10-19T08:53:34.702Z,4.73
2022-10-19T08:54:34.734Z,4.77
2022-10-19T08:55:34.700Z,4.80
2022-10-19T08:56:51.688Z,4.83
2022-10-19T08:57:34.988Z,4.83
2022-10-19T08:58:34.641Z,4.80
2022-10-19T08:59:34.617Z,4.83
2022-10-19T09:00:34.714Z,4.86
2022-10-19T09:01:37.544Z,4.89
2022-10-19T09:02:34.895Z,4.88
2022-10-19T09:03:54.506Z,4.94
2022-10-19T09:04:34.927Z,4.94
2022-10-19T09:05:34.640Z,4.92
2022-10-19T09:06:34.533Z,4.91
2022-10-19T09:07:34.566Z,4.89
2022-10-19T09:08:34.629Z,4.94
2022-10-19T09:09:34.620Z,4.96
2022-10-19T09:10:34.527Z,4.94
2022-10-19T09:11:34.579Z,4.95
2022-10-19T09:12:34.852Z,4.98
2022-10-19T09:13:41.380Z,4.94
2022-10-19T09:14:34.480Z,4.96
2022-10-19T09:15:34.477Z,4.98
2022-10-19T09:16:34.524Z,5.01
2022-10-19T09:17:34.469Z,5.02
2022-10-19T09:18:34.421Z,5.02
2022-10-19T09:19:34.431Z,5.02
2022-10-19T09:20:34.538Z,4.99
2022-10-19T09:21:43.288Z,5.01
2022-10-19T09:22:34.771Z,5.01
2022-10-19T09:23:34.493Z,5.01
2022-10-19T09:24:34.362Z,5.05
2022-10-19T09:25:34.437Z,5.12
2022-10-19T09:26:34.299Z,5.12
2022-10-19T09:27:34.354Z,5.13
2022-10-19T09:28:38.999Z,5.16
2022-10-19T09:29:34.341Z,5.16
2022-10-19T09:30:34.273Z,5.19
2022-10-19T09:31:38.251Z,5.19
2022-10-19T09:32:34.473Z,5.20
2022-10-19T09:33:34.237Z,5.23
2022-10-19T09:34:34.330Z,5.23
2022-10-19T09:35:34.227Z,5.20
2022-10-19T09:36:50.224Z,5.25
2022-10-19T09:37:34.275Z,5.28
2022-10-19T09:38:34.242Z,5.28
2022-10-19T09:39:34.767Z,5.32
2022-10-19T09:40:34.232Z,5.37
2022-10-19T09:41:34.861Z,5.41
2022-10-19T09:42:34.713Z,5.49
2022-10-19T09:43:34.309Z,5.46
2022-10-19T09:44:34.935Z,5.46
2022-10-19T09:45:34.453Z,5.50
2022-10-19T09:46:36.189Z,5.53
2022-10-19T09:47:34.403Z,5.57
2022-10-19T09:48:34.123Z,5.63
2022-10-19T09:49:34.217Z,5.68
2022-10-19T09:50:34.098Z,5.70
2022-10-19T09:51:34.148Z,5.70
2022-10-19T09:52:34.053Z,5.74
2022-10-19T09:53:34.037Z,5.78
2022-10-19T09:54:34.006Z,5.81
2022-10-19T09:55:34.203Z,5.83
2022-10-19T09:56:34.009Z,5.85
2022-10-19T09:57:34.288Z,5.91
2022-10-19T09:58:34.003Z,5.92
2022-10-19T09:59:33.945Z,5.93
2022-10-19T10:00:34.029Z,5.92
2022-10-19T10:01:41.601Z,5.91
2022-10-19T10:02:34.430Z,5.89
2022-10-19T10:03:33.902Z,5.89
2022-10-19T10:04:33.889Z,5.88
2022-10-19T10:05:33.891Z,5.89
2022-10-19T10:06:33.889Z,5.88
2022-10-19T10:07:34.290Z,5.86
2022-10-19T10:08:33.935Z,5.89
2022-10-19T10:09:33.872Z,5.92
2022-10-19T10:10:33.837Z,5.91
2022-10-19T10:11:33.815Z,5.91
2022-10-19T10:12:34.214Z,5.93
2022-10-19T10:13:33.825Z,5.92
2022-10-19T10:14:33.871Z,5.92
2022-10-19T10:15:33.804Z,6.00
2022-10-19T10:16:33.831Z,6.01
2022-10-19T10:17:33.777Z,6.06
2022-10-19T10:18:34.336Z,6.16
2022-10-19T10:19:33.746Z,6.26
2022-10-19T10:20:33.734Z,6.32
2022-10-19T10:21:33.733Z,6.36
2022-10-19T10:22:34.040Z,6.29
2022-10-19T10:23:33.677Z,6.26
2022-10-19T10:24:33.679Z,6.25
2022-10-19T10:25:33.659Z,6.21
2022-10-19T10:26:33.644Z,6.19
2022-10-19T10:27:33.929Z,6.22
2022-10-19T10:28:33.654Z,6.21
2022-10-19T10:29:33.621Z,6.21
2022-10-19T10:30:33.673Z,6.16
2022-10-19T10:31:33.590Z,6.22
2022-10-19T10:32:33.858Z,6.28
2022-10-19T10:33:44.252Z,6.30
2022-10-19T10:35:33.612Z,6.36
2022-10-19T10:36:33.565Z,6.38
2022-10-19T10:37:33.833Z,6.41
2022-10-19T10:38:33.527Z,6.40
2022-10-19T10:39:33.574Z,6.41
2022-10-19T10:40:33.504Z,6.38
2022-10-19T10:41:33.482Z,6.36
2022-10-19T10:42:33.764Z,6.35
2022-10-19T10:43:33.663Z,6.35
2022-10-19T10:44:33.473Z,6.35
2022-10-19T10:45:33.453Z,6.38
2022-10-19T10:46:33.435Z,6.41
2022-10-19T10:47:33.773Z,6.44
2022-10-19T10:48:33.456Z,6.41
2022-10-19T10:49:33.568Z,6.40
2022-10-19T10:50:33.408Z,6.41
2022-10-19T10:51:33.382Z,6.40
2022-10-19T10:52:33.853Z,6.41
2022-10-19T10:53:33.415Z,6.43
2022-10-19T10:54:33.330Z,6.48
2022-10-19T10:55:33.347Z,6.54
2022-10-19T10:56:33.371Z,6.56
2022-10-19T10:57:33.359Z,6.62
2022-10-19T10:58:33.401Z,6.58
2022-10-19T10:59:33.342Z,6.50
2022-10-19T11:00:33.275Z,6.46
2022-10-19T11:01:33.349Z,6.48
2022-10-19T11:02:33.321Z,6.44
2022-10-19T11:03:33.257Z,6.44
2022-10-19T11:04:33.324Z,6.44
2022-10-19T11:05:33.215Z,6.46
2022-10-19T11:06:33.391Z,6.38
2022-10-19T11:07:33.456Z,6.36
2022-10-19T11:08:33.295Z,6.38
2022-10-19T11:09:33.170Z,6.48
2022-10-19T11:10:33.848Z,6.53
2022-10-19T11:11:33.124Z,6.51
2022-10-19T11:12:35.191Z,6.53
2022-10-19T11:13:33.118Z,6.58
2022-10-19T11:14:33.198Z,6.65
2022-10-19T11:15:33.316Z,6.65
2022-10-19T11:16:33.066Z,6.61
2022-10-19T11:17:33.446Z,6.59
2022-10-19T11:18:33.114Z,6.47
2022-10-19T11:19:33.186Z,6.44
2022-10-19T11:20:33.111Z,6.43
2022-10-19T11:21:33.075Z,6.46
2022-10-19T11:22:33.244Z,6.40
2022-10-19T11:23:33.886Z,6.43
2022-10-19T11:24:32.996Z,6.41
2022-10-19T11:25:33.037Z,6.40
2022-10-19T11:26:33.052Z,6.40
2022-10-19T11:27:33.352Z,6.43
2022-10-19T11:28:33.152Z,6.44
2022-10-19T11:29:33.052Z,6.41
2022-10-19T11:30:33.268Z,6.44
2022-10-19T11:31:33.028Z,6.47
2022-10-19T11:32:33.520Z,6.46
2022-10-19T11:33:32.993Z,6.43
2022-10-19T11:34:32.966Z,6.43
2022-10-19T11:35:32.987Z,6.41
2022-10-19T11:36:33.223Z,6.40
2022-10-19T11:37:33.178Z,6.32
2022-10-19T11:38:32.830Z,6.32
2022-10-19T11:39:33.113Z,6.35
2022-10-19T11:40:32.821Z,6.32
2022-10-19T11:41:33.180Z,6.33
2022-10-19T11:42:32.839Z,6.33
2022-10-19T11:43:32.802Z,6.38
2022-10-19T11:44:32.802Z,6.47
2022-10-19T11:45:32.762Z,6.54
2022-10-19T11:46:35.988Z,6.61
2022-10-19T11:47:33.380Z,6.61
2022-10-19T11:48:32.709Z,6.58
2022-10-19T11:49:32.790Z,6.53
2022-10-19T11:50:32.881Z,6.56
2022-10-19T11:51:32.761Z,6.58
2022-10-19T11:52:33.252Z,6.53
2022-10-19T11:53:32.839Z,6.53
2022-10-19T11:54:32.671Z,6.50
2022-10-19T11:55:32.790Z,6.43
2022-10-19T11:56:44.758Z,6.41
2022-10-19T11:57:33.034Z,6.38
2022-10-19T11:58:35.053Z,6.29
2022-10-19T11:59:32.586Z,6.25
2022-10-19T12:00:40.241Z,6.28
2022-10-19T12:01:32.630Z,6.28
2022-10-19T12:02:33.013Z,6.30
2022-10-19T12:03:32.598Z,6.33
2022-10-19T12:04:32.645Z,6.28
2022-10-19T12:05:32.556Z,6.25
2022-10-19T12:06:32.527Z,6.19
2022-10-19T12:07:32.568Z,6.18
2022-10-19T12:08:32.582Z,6.11
2022-10-19T12:09:32.492Z,6.01
2022-10-19T12:10:32.621Z,5.95
2022-10-19T12:11:32.473Z,5.91
2022-10-19T12:12:32.877Z,5.85
2022-10-19T12:13:32.447Z,5.82
2022-10-19T12:14:32.520Z,5.81
2022-10-19T12:15:32.458Z,5.83
2022-10-19T12:16:33.460Z,5.82
2022-10-19T12:17:32.895Z,5.81
2022-10-19T12:18:32.392Z,5.82
2022-10-19T12:19:32.373Z,5.85
2022-10-19T12:20:32.430Z,5.88
2022-10-19T12:21:33.846Z,5.88
2022-10-19T12:22:32.440Z,5.92
2022-10-19T12:23:32.380Z,5.95
2022-10-19T12:24:32.349Z,6.00
2022-10-19T12:25:32.565Z,6.03
2022-10-19T12:26:32.323Z,6.04
2022-10-19T12:27:33.152Z,6.04
2022-10-19T12:28:32.324Z,6.06
2022-10-19T12:29:32.259Z,6.09
2022-10-19T12:30:32.335Z,6.10
2022-10-19T12:31:32.344Z,6.09
2022-10-19T12:32:32.262Z,6.11
2022-10-19T12:33:32.253Z,6.11
2022-10-19T12:34:32.204Z,6.11
2022-10-19T12:35:32.301Z,6.10
2022-10-19T12:36:32.327Z,6.11
2022-10-19T12:37:32.405Z,6.10
2022-10-19T12:38:32.991Z,6.10
2022-10-19T12:39:32.452Z,6.09
2022-10-19T12:40:32.184Z,6.09
2022-10-19T12:41:32.287Z,6.04
2022-10-19T12:48:28.240Z,6.01
2022-10-19T12:49:30.077Z,6.01
2022-10-19T12:50:29.216Z,6.01
2022-10-19T12:51:29.178Z,6.01
2022-10-19T12:52:29.144Z,5.96
2022-10-19T12:53:29.139Z,5.96
2022-10-19T12:54:29.134Z,5.95
2022-10-19T12:55:29.124Z,5.96
2022-10-19T12:56:29.119Z,5.93
2022-10-19T12:57:29.113Z,5.89
2022-10-19T12:58:29.073Z,5.91
2022-10-19T12:59:29.067Z,5.91
2022-10-19T13:00:29.097Z,5.91
2022-10-19T13:01:29.084Z,5.89
2022-10-19T13:02:29.134Z,5.88
2022-10-19T13:03:29.799Z,5.88
2022-10-19T13:04:29.024Z,5.89
2022-10-19T13:05:29.060Z,5.89
2022-10-19T13:06:28.994Z,5.88
2022-10-19T13:07:29.006Z,5.89
2022-10-19T13:08:29.087Z,5.86
2022-10-19T13:09:28.965Z,5.86
2022-10-19T13:10:28.947Z,5.89
2022-10-19T13:11:29.085Z,5.88
2022-10-19T13:12:28.935Z,5.85
2022-10-19T13:13:28.913Z,5.83
2022-10-19T13:14:28.908Z,5.85
2022-10-19T13:15:28.933Z,5.88
2022-10-19T13:16:28.880Z,5.86
2022-10-19T13:17:33.174Z,5.88
2022-10-19T13:18:28.885Z,5.88
2022-10-19T13:19:28.842Z,5.89
2022-10-19T13:20:28.880Z,5.92
2022-10-19T13:21:28.834Z,5.93
2022-10-19T13:22:28.840Z,5.95
2022-10-19T13:23:28.829Z,5.95
2022-10-19T13:24:28.851Z,5.96
2022-10-19T13:25:28.805Z,5.95
2022-10-19T13:26:28.772Z,5.95
2022-10-19T13:27:28.771Z,5.92
2022-10-19T13:28:28.776Z,5.96
2022-10-19T13:29:28.881Z,5.96
2022-10-19T13:30:28.712Z,5.98
2022-10-19T13:31:28.718Z,5.96
2022-10-19T13:32:28.726Z,6.00